Time;durP1;ratioP1;P1;durP2;ratioP2;P2;SDS_P1;SDS_P2;PMS_P1;PMS_P2;Temp;Humidity;BMP_temperature;BMP_pressure;BME280_temperature;BME280_humidity;BME280_pressure;Samples;Min_cycle;Max_cycle;Signal;HPM_P1;HPM_P2
2023/10/17 06:18:56;;;;;;;;;;;;;;;5.98;100.00;100299.92;1775456;80;20425;-71
2023/10/17 06:21:38;;;;;;;;;;;;;;;6.07;100.00;100294.87;1786922;80;20135;-73
2023/10/17 06:24:06;;;;;;;;;;;;;;;6.15;100.00;100300.63;1784618;80;20385;-72
2023/10/17 06:26:58;;;;;;;;;;;;;;;6.20;100.00;100289.69;1774797;80;20103;-69
2023/10/17 06:34:21;;;;;;;;;;;;;;;6.27;100.00;100298.92;1789385;80;20136;-67
2023/10/17 06:36:55;;;;;;;;;;;;;;;6.29;100.00;100296.69;1777860;80;20394;-69
2023/10/17 06:39:23;;;;;;;;;;;;;;;6.28;100.00;100303.20;1780493;80;20404;-72
2023/10/17 06:41:51;;;;;;;;;;;;;;;6.29;100.00;100292.81;1776530;80;20384;-71
2023/10/17 06:44:23;;;;;;;;;;;;;;;6.28;100.00;100297.58;1764272;80;20123;-68
2023/10/17 06:47:07;;;;;;;;;;;;;;;6.31;100.00;100299.22;1785690;80;20115;-69
2023/10/17 06:54:59;;;;;;;;;;;;;;;6.63;100.00;100307.98;1749419;80;20179;-69
2023/10/17 06:57:23;;;;;;;;;;;;;;;6.75;100.00;100313.62;1776026;80;20488;-71
2023/10/17 07:00:01;;;;;;;;;;;;;;;6.88;100.00;100320.03;1783611;79;20104;-67
2023/10/17 07:02:28;;;;;;;;;;;;;;;7.01;100.00;100315.65;1780807;80;20221;-70
2023/10/17 07:30:13;;;;;;;;;;;;;;;9.14;100.00;100331.08;1812070;78;20101;-69
2023/10/17 07:32:46;;;;;;;;;;;;;;;9.33;100.00;100343.14;1799400;79;20139;-76
2023/10/17 07:35:16;;;;;;;;;;;;;;;9.49;100.00;100342.44;1803933;79;20118;-68
2023/10/17 07:37:54;;;;;;;;;;;;;;;9.60;100.00;100347.95;1801277;79;20141;-68
2023/10/17 07:40:22;;;;;;;;;;;;;;;9.70;100.00;100347.91;1809004;79;20303;-70
2023/10/17 07:42:52;;;;;;;;;;;;;;;9.79;100.00;100353.98;1809883;79;20135;-69
2023/10/17 07:45:21;;;;;;;;;;;;;;;9.86;100.00;100346.28;1813561;78;20431;-72
2023/10/17 07:47:54;;;;;;;;;;;;;;;9.93;100.00;100355.47;1811038;79;20118;-68
2023/10/17 07:50:25;;;;;;;;;;;;;;;9.98;100.00;100356.09;1807042;79;20161;-68
2023/10/17 07:52:59;;;;;;;;;;;;;;;10.03;100.00;100364.95;1804723;79;20381;-70
2023/10/17 07:55:35;;;;;;;;;;;;;;;10.07;100.00;100358.69;1813074;78;20106;-69
2023/10/17 07:57:52;;;;;;;;;;;;;;;10.14;100.00;100364.44;1810947;79;20115;-68
2023/10/17 08:00:36;;;;;;;;;;;;;;;10.20;100.00;100356.36;1813741;79;20106;-67
2023/10/17 08:03:09;;;;;;;;;;;;;;;10.24;100.00;100366.55;1819432;79;20158;-68
2023/10/17 08:30:51;;;;;;;;;;;;;;;10.35;90.92;100394.20;1772755;80;20106;-66
2023/10/17 08:33:15;;;;;;;;;;;;;;;10.32;90.15;100386.54;1774575;80;20096;-69
2023/10/17 08:35:53;;;;;;;;;;;;;;;10.30;89.94;100392.73;1777246;80;20108;-71
2023/10/17 08:38:22;;;;;;;;;;;;;;;10.32;90.31;100392.20;1768315;80;20128;-66
2023/10/17 08:40:54;;;;;;;;;;;;;;;10.37;89.57;100399.33;1777797;80;20129;-74
2023/10/17 08:43:19;;;;;;;;;;;;;;;10.37;88.87;100394.13;1769761;80;20415;-67
2023/10/17 08:45:47;;;;;;;;;;;;;;;10.35;87.97;100399.86;1752667;82;20131;-69
2023/10/17 08:48:14;;;;;;;;;;;;;;;10.31;87.23;100399.17;1761324;80;20149;-68
2023/10/17 08:50:41;;;;;;;;;;;;;;;10.26;86.57;100399.85;1782249;80;20116;-70
2023/10/17 08:53:13;;;;;;;;;;;;;;;10.20;85.93;100408.41;1764576;81;20166;-68
2023/10/17 08:55:40;;;;;;;;;;;;;;;10.12;85.39;100409.20;1781227;80;20108;-69
2023/10/17 08:58:10;;;;;;;;;;;;;;;10.01;84.57;100406.65;1783206;80;20105;-67
2023/10/17 09:03:29;;;;;;;;;;;;;;;9.85;85.07;100404.88;1766107;80;20275;-67
2023/10/17 09:05:58;;;;;;;;;;;;;;;9.81;85.02;100405.47;1766563;80;20123;-68
2023/10/17 09:08:45;;;;;;;;;;;;;;;9.79;85.49;100405.16;1767510;80;20132;-69
2023/10/17 09:11:07;;;;;;;;;;;;;;;9.76;84.77;100402.23;1764612;80;20141;-72
2023/10/17 09:16:23;;;;;;;;;;;;;;;9.75;84.71;100400.55;1811921;79;20139;-76
2023/10/17 09:18:56;;;;;;;;;;;;;;;9.73;84.08;100401.08;1806200;78;20116;-70
2023/10/17 09:21:23;;;;;;;;;;;;;;;9.73;83.98;100407.58;1795086;79;20427;-69
2023/10/17 09:23:50;;;;;;;;;;;;;;;9.75;84.36;100407.51;1744994;79;20156;-68
2023/10/17 09:26:19;;;;;;;;;;;;;;;9.81;84.53;100414.57;1820457;79;20131;-67
2023/10/17 09:28:47;;;;;;;;;;;;;;;9.87;83.82;100415.59;1817636;79;20095;-68
2023/10/17 09:31:20;;;;;;;;;;;;;;;9.91;83.10;100423.63;1808979;79;20433;-69
2023/10/17 09:33:48;;;;;;;;;;;;;;;9.85;82.01;100420.02;1802104;79;20104;-68
2023/10/17 09:36:17;;;;;;;;;;;;;;;9.77;81.76;100416.92;1803439;79;20256;-69
2023/10/17 09:38:44;;;;;;;;;;;;;;;9.71;82.12;100419.81;1820150;79;20130;-72
2023/10/17 09:41:17;;;;;;;;;;;;;;;9.69;81.86;100417.73;1820196;79;20127;-68
2023/10/17 09:51:33;;;;;;;;;;;;;;;9.71;79.92;100414.61;1811538;79;20094;-68
2023/10/17 09:54:01;;;;;;;;;;;;;;;9.79;80.03;100403.39;1815871;79;20129;-71
2023/10/17 09:56:39;;;;;;;;;;;;;;;9.88;79.32;100409.47;1814138;79;20124;-69
2023/10/17 09:59:11;;;;;;;;;;;;;;;9.94;79.13;100409.19;1810298;79;20138;-67
2023/10/17 10:45:50;;;;;;;;;;;;;;;9.69;73.12;100408.17;1814256;79;20130;-70
2023/10/17 10:48:17;;;;;;;;;;;;;;;9.69;73.09;100413.37;1805892;79;20173;-69
2023/10/17 10:56:02;;;;;;;;;;;;;;;9.77;72.45;100420.83;1799258;79;20424;-66
2023/10/17 10:58:31;;;;;;;;;;;;;;;9.76;71.66;100406.59;1811179;79;20110;-69
2023/10/17 11:01:02;;;;;;;;;;;;;;;9.76;71.24;100399.64;1819162;79;20109;-68
2023/10/17 11:18:53;;;;;;;;;;;;;;;10.18;67.49;100401.10;1780586;80;20135;-68
2023/10/17 11:21:21;;;;;;;;;;;;;;;10.17;67.45;100383.34;1783906;80;20139;-70
2023/10/17 11:24:02;;;;;;;;;;;;;;;10.15;67.50;100394.28;1782767;80;20113;-70
2023/10/17 11:26:29;;;;;;;;;;;;;;;10.12;68.14;100388.39;1780981;80;20131;-66
2023/10/17 11:28:57;;;;;;;;;;;;;;;10.12;68.42;100389.23;1755111;81;20135;-68
2023/10/17 11:31:24;;;;;;;;;;;;;;;10.10;67.58;100387.62;1754817;82;20130;-67
2023/10/17 11:33:59;;;;;;;;;;;;;;;10.09;67.70;100392.44;1750441;81;20091;-66
2023/10/17 11:36:35;;;;;;;;;;;;;;;10.07;67.64;100390.36;1711986;83;20125;-68
2023/10/17 11:38:58;;;;;;;;;;;;;;;10.00;67.21;100401.06;1724089;83;20133;-68
2023/10/17 11:41:46;;;;;;;;;;;;;;;9.90;67.17;100393.80;1708780;83;20172;-69
2023/10/17 11:46:31;;;;;;;;;;;;;;;9.71;67.79;100389.91;1710749;82;20168;-69
2023/10/17 11:49:30;;;;;;;;;;;;;;;9.68;68.32;100388.75;1744465;81;20141;-69
2023/10/17 11:52:00;;;;;;;;;;;;;;;9.65;68.44;100392.33;1747647;81;20113;-68
2023/10/17 11:54:28;;;;;;;;;;;;;;;9.65;69.03;100384.98;1773962;81;20238;-65
2023/10/17 11:56:57;;;;;;;;;;;;;;;9.65;69.59;100385.83;1773938;81;20101;-64
2023/10/17 12:14:43;;;;;;;;;;;;;;;9.76;66.63;100407.44;1756691;80;20205;-69
2023/10/17 12:17:13;;;;;;;;;;;;;;;9.74;66.52;100401.92;1736201;81;20138;-69
2023/10/17 13:53:40;;;;;;;;;;;;;;;8.38;73.53;100425.27;1728976;81;20202;-70
2023/10/17 13:56:20;;;;;;;;;;;;;;;8.31;73.74;100415.55;1737824;81;20142;-71
2023/10/17 13:58:48;;;;;;;;;;;;;;;8.28;73.75;100423.00;1736624;81;20115;-69
